• Join FlightAware (Why Join?)
  • Login
  • US Flag 
08:29AM EDT


 

Airport Tracker/Info


-or-


 

Live Flight TrackerFlight Track Log ✈ UAL363 ✈ 05-May-2013 ✈ KFLL - KIAD

Flight Track Log - Related Links

Times and Time Zones

All times are in EDT time to prevent confusion due to time zone crossing. See the UAL363 flight status page for this flight to view local times or setup timezone preferences in your user account.

Time Position Orientation Groundspeed Altitude Reporting Facility
EDT Latitude Longitude Course Direction KTS MPH feet Rate Location/Type
08:08PM 26.0739 -80.1828 342° North 164 189 1,100  Level Miami Center
08:09PM 26.0731 -80.2175 268° West 204 235 1,900 2,220 Climbing Miami Center
08:10PM 26.0864 -80.2803 283° West 236 272 4,800 2,460 Climbing Miami Center
08:11PM 26.2265 -80.1315 279° West  Level FlightAware Approximate
08:11PM 26.1611 -80.3011 346° North 278 320 7,000  Level Miami Center
08:12PM 26.2892 -80.2531 312° West  Level FlightAware Approximate
08:12PM 26.2358 -80.3172 349° North 286 329 9,000  Level Miami Center
08:13PM 26.3859 -80.3509 342° North  Level FlightAware Approximate
08:13PM 26.3125 -80.3425 344° North 280 322 11,700  Level Miami Center
08:14PM 26.4161 -80.3733 345° North 323 372 12,400 1,200 Climbing Miami Center
08:15PM 26.5117 -80.3994 346° North 378 435 14,100 2,100 Climbing Miami Center
08:16PM 26.6339 -80.4356 345° North 401 461 16,600 2,040 Climbing Miami Center
08:17PM 26.7333 -80.4689 343° North 410 472 18,200 1,680 Climbing Miami Center
08:18PM 26.8639 -80.5147 343° North 423 487 20,000 1,560 Climbing Miami Center
08:19PM 26.9861 -80.5514 345° North 436 502 21,400 1,380 Climbing Miami Center
08:20PM 27.1081 -80.5925 343° North 441 507 22,800 1,380 Climbing Miami Center
08:21PM 27.2303 -80.6314 344° North 454 522 24,200 1,200 Climbing Miami Center
08:22PM 27.3608 -80.6731 344° North 459 528 25,300 1,020 Climbing Miami Center
08:23PM 27.4600 -80.7069 343° North 465 535 26,300 1,200 Climbing Miami Center
08:24PM 27.6111 -80.7564 344° North 470 541 27,800 1,380 Climbing Miami Center
08:25PM 27.7353 -80.7936 345° North 470 541 29,100 1,320 Climbing Miami Center
08:26PM 27.8697 -80.8381 344° North 475 547 30,500 1,380 Climbing Miami Center
08:27PM 27.9919 -80.8775 344° North 475 547 31,900 1,320 Climbing Miami Center
08:28PM 28.1158 -80.9197 343° North 470 541 33,200 1,080 Climbing Miami Center
08:29PM 28.2381 -80.9572 345° North 462 532 34,100 960 Climbing Miami Center
08:30PM 28.4453 -81.0322 342° North 459 528 35,800 840 Climbing Jacksonville Center
08:31PM 28.5689 -81.0725 344° North 464 534 36,500 540 Climbing Jacksonville Center
08:32PM 28.6906 -81.1128 344° North 459 528 36,900 180 Climbing Jacksonville Center
08:33PM 28.8142 -81.1439 348° North 454 522 36,900  Level Jacksonville Center
08:34PM 28.9378 -81.1725 349° North 454 522 36,900  Level Jacksonville Center
08:35PM 29.0656 -81.2036 348° North 447 514 37,000  Climbing Jacksonville Center
08:36PM 29.1911 -81.2347 348° North 452 520 36,900 -60 Descending Jacksonville Center
08:37PM 29.3125 -81.2636 348° North 452 520 36,900  Level Jacksonville Center
08:38PM 29.4361 -81.2925 348° North 452 520 36,900  Level Jacksonville Center
08:39PM 29.5575 -81.3239 347° North 452 520 36,900  Level Jacksonville Center
08:40PM 29.6853 -81.3531 349° North 452 520 37,000  Climbing Jacksonville Center
08:41PM 29.7856 -81.3778 348° North 452 520 37,000  Level Jacksonville Center
08:42PM 29.9386 -81.4136 349° North 452 520 37,000  Level Jacksonville Center
08:43PM 30.0661 -81.4453 348° North 452 520 37,000  Level Jacksonville Center
08:44PM 30.1939 -81.4747 349° North 452 520 37,000  Level Jacksonville Center
08:45PM 30.3236 -81.5017 350° North 452 520 37,000  Level Jacksonville Center
08:46PM 30.4572 -81.4997 North 464 534 37,000  Level Jacksonville Center
08:47PM 30.5908 -81.4906 North 469 540 37,000  Level Jacksonville Center
08:48PM 30.7222 -81.4789 North 474 545 37,000  Level Jacksonville Center
08:49PM 30.8558 -81.4697 North 479 551 37,000  Level Jacksonville Center
08:50PM 30.9872 -81.4603 North 479 551 37,000  Level Jacksonville Center
08:51PM 31.1206 -81.4486 North 479 551 37,000  Level Jacksonville Center
08:52PM 31.2561 -81.4344 North 479 551 37,000  Level Jacksonville Center
08:53PM 31.3872 -81.4008 12° North 479 551 37,000  Level Jacksonville Center
08:54PM 31.5061 -81.3694 13° North 486 559 37,000  Level Jacksonville Center
08:55PM 31.6431 -81.2992 24° Northeast 491 565 37,000  Level Jacksonville Center
08:56PM 31.7672 -81.2236 27° Northeast 484 557 37,000 -60 Level Jacksonville Center
08:57PM 31.8914 -81.1481 27° Northeast 489 563 36,900 -60 Descending Jacksonville Center
08:58PM 32.0011 -81.0797 28° Northeast 496 571 36,900  Level Jacksonville Center
08:59PM 32.1253 -81.0011 28° Northeast 490 564 37,000  Climbing Jacksonville Center
09:00PM 32.2617 -80.9172 27° Northeast 490 564 37,000  Level Jacksonville Center
09:01PM 32.3733 -80.8486 27° Northeast 485 558 37,000 -60 Level Jacksonville Center
09:02PM 32.4933 -80.7719 28° Northeast 485 558 36,900 -60 Descending Jacksonville Center
09:03PM 32.6192 -80.6950 27° Northeast 485 558 36,900  Level Jacksonville Center
09:04PM 32.7389 -80.6181 28° Northeast 485 558 36,900  Level Jacksonville Center
09:05PM 32.8647 -80.5381 28° Northeast 485 558 36,900  Level Jacksonville Center
09:06PM 32.9867 -80.4656 27° Northeast 485 558 36,900  Level Jacksonville Center
09:07PM 33.1186 -80.3778 29° Northeast 512 589 37,000  Climbing Jacksonville Center
09:08PM 33.2381 -80.3072 26° Northeast 500 575 36,900 -60 Descending Jacksonville Center
09:09PM 33.3617 -80.2267 29° Northeast 500 575 36,900  Level Jacksonville Center
09:10PM 33.4811 -80.1483 29° Northeast 493 567 36,900  Level Jacksonville Center
09:11PM 33.6003 -80.0697 29° Northeast 493 567 36,900  Level Jacksonville Center
09:12PM 33.7217 -79.9911 28° Northeast 493 567 36,900  Level Jacksonville Center
09:13PM 33.8431 -79.9144 28° Northeast 487 560 36,900  Level Jacksonville Center
09:14PM 33.9642 -79.8353 28° Northeast 487 560 37,000  Climbing Jacksonville Center
09:15PM 34.0853 -79.7558 29° Northeast 487 560 37,000  Level Jacksonville Center
09:17PM 34.2744 -79.6356 28° Northeast 501 577 37,000  Level Washington Center
09:18PM 34.4000 -79.5686 24° Northeast 501 577 37,000  Level Washington Center
09:19PM 34.5292 -79.5069 21° North 490 564 37,000  Level Washington Center
09:20PM 34.6544 -79.4372 25° Northeast 490 564 37,000  Level Washington Center
09:21PM 34.7819 -79.3697 23° Northeast 490 564 37,000  Level Washington Center
09:22PM 34.9069 -79.3047 23° Northeast 490 564 37,000  Level Washington Center
09:23PM 35.0322 -79.2369 24° Northeast 490 564 37,000  Level Washington Center
09:24PM 35.1617 -79.1692 23° Northeast 490 564 37,000  Level Washington Center
09:25PM 35.2844 -79.1033 24° Northeast 485 558 37,000  Level Washington Center
09:26PM 35.4117 -79.0375 23° Northeast 485 558 37,000  Level Washington Center
09:27PM 35.5367 -78.9714 23° Northeast 485 558 37,000  Level Washington Center
09:28PM 35.6639 -78.9028 24° Northeast 485 558 37,000  Level Washington Center
09:29PM 35.7844 -78.8361 24° Northeast 485 558 37,000 -300 Level Washington Center
09:30PM 35.9181 -78.7619 24° Northeast 480 552 36,400 -840 Descending Washington Center
09:31PM 36.0408 -78.6950 24° Northeast 480 552 35,400 -1,020 Descending Washington Center
09:32PM 36.1658 -78.6228 25° Northeast 480 552 34,400 -1,020 Descending Washington Center
09:33PM 36.2886 -78.5528 25° Northeast 480 552 33,500 -960 Descending Washington Center
09:34PM 36.4092 -78.4825 25° Northeast 480 552 32,500 -1,020 Descending Washington Center
09:35PM 36.5317 -78.4147 24° Northeast 480 552 31,500 -960 Descending Washington Center
09:36PM 36.6567 -78.3417 25° Northeast 480 552 30,600 -1,020 Descending Washington Center
09:37PM 36.7792 -78.2706 25° Northeast 480 552 29,500 -1,080 Descending Washington Center
09:38PM 36.8997 -78.1994 25° Northeast 480 552 28,500 -960 Descending Washington Center
09:39PM 37.0222 -78.1283 25° Northeast 480 552 27,600 -900 Descending Washington Center
09:40PM 37.1425 -78.0567 25° Northeast 480 552 26,700 -1,380 Descending Washington Center
09:41PM 37.2631 -77.9850 25° Northeast 475 547 24,800 -1,980 Descending Washington Center
09:42PM 37.3789 -77.9181 25° Northeast 464 534 22,900 -2,040 Descending Washington Center
09:43PM 37.4931 -77.8508 25° Northeast 459 528 20,800 -2,160 Descending Washington Center
09:44PM 37.6025 -77.7858 25° Northeast 447 514 18,700 -1,980 Descending Washington Center
09:45PM 37.7122 -77.7233 24° Northeast 436 502 16,900 -1,860 Descending Washington Center
09:46PM 37.8156 -77.6631 25° Northeast 422 486 15,000 -1,920 Descending Washington Center
09:47PM 37.9167 -77.6000 26° Northeast 405 466 13,100 -1,800 Descending Washington Center
09:48PM 38.0156 -77.5422 25° Northeast 398 458 11,400 -1,440 Descending Washington Center
09:49PM 38.1019 -77.4969 22° Northeast 388 447 10,200 -780 Descending Washington Center
09:50PM 38.1881 -77.4464 25° Northeast 360 414 9,900 -780 Descending Washington Center
09:51PM 38.2697 -77.4297 North 318 366 8,700 -1,320 Descending Washington Center
09:52PM 38.3492 -77.4133 North 295 339 7,300 -1,380 Descending Washington Center
09:53PM 38.4267 -77.3992 North 282 325 6,000 -1,560 Descending Washington Center
09:54PM 38.5103 -77.3825 North 277 319 4,300 -1,020 Descending Washington Center
09:55PM 38.5856 -77.3686 North 277 319 4,000 -180 Descending Washington Center
09:56PM 38.6606 -77.3650 North 277 319 4,000  Level Washington Center
09:57PM 38.7356 -77.3614 North 277 319 4,000  Level Washington Center
09:58PM 38.8167 -77.3500 North 269 310 4,000 -300 Level Potomac TRACON
09:59PM 38.8833 -77.3500 360° North 265 305 3,400 -480 Descending Potomac TRACON
10:00PM 38.9500 -77.3500 360° North 253 291 3,000 -300 Descending Potomac TRACON
10:01PM 39.0167 -77.3500 360° North 217 250 2,900 -660 Descending Potomac TRACON
10:02PM 39.0500 -77.4000 311° West 218 251 1,800 -780 Descending Potomac TRACON
10:03PM 39.0333 -77.4667 252° West 190 219 1,400 -420 Descending Potomac TRACON